sensor_id;sensor_type;location;lat;lon;timestamp;P1;durP1;ratioP1;P2;durP2;ratioP2
23402;SDS011;11874;48.228;11.684;2023-05-02T11:07:27;8.68;;;7.50;;
23402;SDS011;11874;48.228;11.684;2023-05-02T11:12:53;9.00;;;7.80;;
23402;SDS011;11874;48.228;11.684;2023-05-02T11:21:26;8.48;;;7.57;;
23402;SDS011;11874;48.228;11.684;2023-05-02T11:30:04;11.75;;;7.65;;
23402;SDS011;11874;48.228;11.684;2023-05-02T11:35:43;7.55;;;6.80;;
23402;SDS011;11874;48.228;11.684;2023-05-02T11:38:12;7.55;;;6.78;;
23402;SDS011;11874;48.228;11.684;2023-05-02T11:40:51;7.88;;;7.00;;
23402;SDS011;11874;48.228;11.684;2023-05-02T11:43:23;7.35;;;6.65;;
23402;SDS011;11874;48.228;11.684;2023-05-02T11:45:55;9.32;;;7.15;;
23402;SDS011;11874;48.228;11.684;2023-05-02T11:48:25;8.05;;;7.22;;
23402;SDS011;11874;48.228;11.684;2023-05-02T11:50:54;9.70;;;7.07;;
23402;SDS011;11874;48.228;11.684;2023-05-02T11:53:24;10.23;;;7.07;;
23402;SDS011;11874;48.228;11.684;2023-05-02T11:55:54;7.43;;;5.82;;
23402;SDS011;11874;48.228;11.684;2023-05-02T11:58:25;8.05;;;7.07;;
23402;SDS011;11874;48.228;11.684;2023-05-02T12:00:55;8.25;;;6.20;;
23402;SDS011;11874;48.228;11.684;2023-05-02T12:03:25;7.88;;;6.85;;
23402;SDS011;11874;48.228;11.684;2023-05-02T12:08:24;7.35;;;6.57;;
23402;SDS011;11874;48.228;11.684;2023-05-02T12:10:53;6.63;;;5.93;;
23402;SDS011;11874;48.228;11.684;2023-05-02T12:13:23;10.07;;;5.97;;
23402;SDS011;11874;48.228;11.684;2023-05-02T12:15:53;7.75;;;5.82;;
23402;SDS011;11874;48.228;11.684;2023-05-02T12:18:22;8.82;;;6.15;;
23402;SDS011;11874;48.228;11.684;2023-05-02T12:20:52;6.70;;;6.10;;
23402;SDS011;11874;48.228;11.684;2023-05-02T12:23:22;6.82;;;6.13;;
23402;SDS011;11874;48.228;11.684;2023-05-02T12:25:51;6.63;;;5.97;;
23402;SDS011;11874;48.228;11.684;2023-05-02T12:28:19;7.07;;;6.40;;
23402;SDS011;11874;48.228;11.684;2023-05-02T12:30:50;8.45;;;6.10;;
23402;SDS011;11874;48.228;11.684;2023-05-02T12:33:18;6.95;;;5.97;;
23402;SDS011;11874;48.228;11.684;2023-05-02T12:35:46;7.05;;;6.18;;
23402;SDS011;11874;48.228;11.684;2023-05-02T12:38:15;9.63;;;5.57;;
23402;SDS011;11874;48.228;11.684;2023-05-02T12:40:47;6.00;;;5.40;;
23402;SDS011;11874;48.228;11.684;2023-05-02T12:43:16;5.53;;;4.82;;
23402;SDS011;11874;48.228;11.684;2023-05-02T12:45:45;6.05;;;5.38;;
23402;SDS011;11874;48.228;11.684;2023-05-02T12:48:19;6.90;;;5.90;;
23402;SDS011;11874;48.228;11.684;2023-05-02T12:50:49;7.45;;;6.18;;
23402;SDS011;11874;48.228;11.684;2023-05-02T12:56:07;11.63;;;6.80;;
23402;SDS011;11874;48.228;11.684;2023-05-02T12:58:42;7.20;;;6.50;;
23402;SDS011;11874;48.228;11.684;2023-05-02T13:01:11;8.15;;;6.65;;
23402;SDS011;11874;48.228;11.684;2023-05-02T13:03:40;11.10;;;7.30;;
23402;SDS011;11874;48.228;11.684;2023-05-02T13:06:09;15.90;;;7.82;;
23402;SDS011;11874;48.228;11.684;2023-05-02T13:08:37;8.20;;;6.75;;
23402;SDS011;11874;48.228;11.684;2023-05-02T13:11:05;7.93;;;7.10;;
23402;SDS011;11874;48.228;11.684;2023-05-02T13:13:33;10.52;;;7.75;;
23402;SDS011;11874;48.228;11.684;2023-05-02T13:16:01;12.35;;;7.55;;
23402;SDS011;11874;48.228;11.684;2023-05-02T13:18:29;8.52;;;6.85;;
23402;SDS011;11874;48.228;11.684;2023-05-02T13:20:58;7.30;;;6.45;;
23402;SDS011;11874;48.228;11.684;2023-05-02T13:23:26;8.00;;;6.07;;
23402;SDS011;11874;48.228;11.684;2023-05-02T13:25:54;6.53;;;5.88;;
23402;SDS011;11874;48.228;11.684;2023-05-02T13:28:22;10.82;;;6.22;;
23402;SDS011;11874;48.228;11.684;2023-05-02T13:30:51;6.15;;;5.55;;
23402;SDS011;11874;48.228;11.684;2023-05-02T13:33:19;5.50;;;4.97;;
23402;SDS011;11874;48.228;11.684;2023-05-02T13:35:47;5.28;;;4.78;;
23402;SDS011;11874;48.228;11.684;2023-05-02T13:38:16;5.50;;;4.85;;
23402;SDS011;11874;48.228;11.684;2023-05-02T13:40:44;5.60;;;5.10;;
23402;SDS011;11874;48.228;11.684;2023-05-02T13:43:12;10.15;;;5.10;;
23402;SDS011;11874;48.228;11.684;2023-05-02T13:45:40;5.30;;;4.82;;
23402;SDS011;11874;48.228;11.684;2023-05-02T13:48:08;7.93;;;5.30;;
23402;SDS011;11874;48.228;11.684;2023-05-02T13:50:36;12.02;;;7.07;;
23402;SDS011;11874;48.228;11.684;2023-05-02T13:53:04;14.48;;;7.43;;
23402;SDS011;11874;48.228;11.684;2023-05-02T13:55:33;11.30;;;6.47;;
23402;SDS011;11874;48.228;11.684;2023-05-02T13:58:01;9.32;;;6.55;;
23402;SDS011;11874;48.228;11.684;2023-05-02T14:00:30;8.80;;;6.70;;
23402;SDS011;11874;48.228;11.684;2023-05-02T14:03:07;9.00;;;7.10;;
23402;SDS011;11874;48.228;11.684;2023-05-02T14:05:36;6.68;;;5.97;;
23402;SDS011;11874;48.228;11.684;2023-05-02T14:08:08;7.95;;;6.28;;
23402;SDS011;11874;48.228;11.684;2023-05-02T14:10:37;8.23;;;6.78;;
23402;SDS011;11874;48.228;11.684;2023-05-02T14:13:05;7.15;;;5.78;;
23402;SDS011;11874;48.228;11.684;2023-05-02T14:15:33;7.28;;;5.72;;
23402;SDS011;11874;48.228;11.684;2023-05-02T14:18:02;5.40;;;4.88;;
23402;SDS011;11874;48.228;11.684;2023-05-02T14:20:30;5.97;;;5.18;;
23402;SDS011;11874;48.228;11.684;2023-05-02T14:22:58;6.57;;;5.28;;
23402;SDS011;11874;48.228;11.684;2023-05-02T14:25:26;6.30;;;5.55;;
23402;SDS011;11874;48.228;11.684;2023-05-02T14:27:55;5.38;;;4.75;;
23402;SDS011;11874;48.228;11.684;2023-05-02T14:30:23;6.45;;;4.60;;
23402;SDS011;11874;48.228;11.684;2023-05-02T14:32:51;6.05;;;5.45;;
23402;SDS011;11874;48.228;11.684;2023-05-02T14:35:19;7.70;;;4.95;;
23402;SDS011;11874;48.228;11.684;2023-05-02T14:37:49;7.57;;;5.63;;
23402;SDS011;11874;48.228;11.684;2023-05-02T14:40:17;7.10;;;6.10;;
23402;SDS011;11874;48.228;11.684;2023-05-02T14:42:45;8.98;;;6.30;;
23402;SDS011;11874;48.228;11.684;2023-05-02T14:45:14;6.13;;;5.03;;
23402;SDS011;11874;48.228;11.684;2023-05-02T14:47:42;5.82;;;5.00;;
23402;SDS011;11874;48.228;11.684;2023-05-02T14:50:10;7.18;;;5.07;;
23402;SDS011;11874;48.228;11.684;2023-05-02T14:52:38;6.18;;;4.57;;
23402;SDS011;11874;48.228;11.684;2023-05-02T14:55:06;5.00;;;4.40;;
23402;SDS011;11874;48.228;11.684;2023-05-02T21:20:54;14.95;;;11.57;;
23402;SDS011;11874;48.228;11.684;2023-05-02T21:23:22;14.18;;;11.82;;
23402;SDS011;11874;48.228;11.684;2023-05-02T21:25:51;15.50;;;11.95;;
23402;SDS011;11874;48.228;11.684;2023-05-02T21:28:20;15.77;;;12.43;;
23402;SDS011;11874;48.228;11.684;2023-05-02T21:30:47;14.10;;;12.07;;
23402;SDS011;11874;48.228;11.684;2023-05-02T21:33:15;14.32;;;11.77;;
23402;SDS011;11874;48.228;11.684;2023-05-02T21:35:43;16.23;;;12.50;;
23402;SDS011;11874;48.228;11.684;2023-05-02T21:38:12;17.25;;;13.00;;
23402;SDS011;11874;48.228;11.684;2023-05-02T21:40:40;16.67;;;11.93;;
23402;SDS011;11874;48.228;11.684;2023-05-02T21:43:08;16.17;;;12.65;;
23402;SDS011;11874;48.228;11.684;2023-05-02T21:45:41;17.13;;;13.07;;
23402;SDS011;11874;48.228;11.684;2023-05-02T21:48:10;16.75;;;13.32;;
23402;SDS011;11874;48.228;11.684;2023-05-02T21:50:38;13.70;;;11.23;;
23402;SDS011;11874;48.228;11.684;2023-05-02T21:53:07;19.40;;;12.63;;
23402;SDS011;11874;48.228;11.684;2023-05-02T21:55:37;16.23;;;12.40;;
23402;SDS011;11874;48.228;11.684;2023-05-02T21:58:07;15.15;;;12.63;;
23402;SDS011;11874;48.228;11.684;2023-05-02T22:00:36;18.10;;;13.95;;
23402;SDS011;11874;48.228;11.684;2023-05-02T22:03:04;17.67;;;13.32;;
23402;SDS011;11874;48.228;11.684;2023-05-02T22:05:34;19.02;;;13.30;;
23402;SDS011;11874;48.228;11.684;2023-05-02T22:08:04;16.60;;;13.00;;
23402;SDS011;11874;48.228;11.684;2023-05-02T22:10:33;18.58;;;14.25;;
23402;SDS011;11874;48.228;11.684;2023-05-02T22:13:03;17.27;;;13.32;;
23402;SDS011;11874;48.228;11.684;2023-05-02T22:15:32;17.58;;;13.13;;
23402;SDS011;11874;48.228;11.684;2023-05-02T22:17:59;15.80;;;12.52;;
23402;SDS011;11874;48.228;11.684;2023-05-02T22:23:01;16.90;;;11.48;;
23402;SDS011;11874;48.228;11.684;2023-05-02T22:25:29;14.32;;;11.50;;
23402;SDS011;11874;48.228;11.684;2023-05-02T22:27:57;14.23;;;11.35;;
23402;SDS011;11874;48.228;11.684;2023-05-02T22:30:29;13.15;;;11.50;;
23402;SDS011;11874;48.228;11.684;2023-05-02T22:32:57;13.65;;;11.50;;
23402;SDS011;11874;48.228;11.684;2023-05-02T22:35:25;15.65;;;12.43;;
23402;SDS011;11874;48.228;11.684;2023-05-02T22:37:53;15.23;;;12.73;;
23402;SDS011;11874;48.228;11.684;2023-05-02T22:40:22;14.82;;;12.13;;
23402;SDS011;11874;48.228;11.684;2023-05-02T22:42:50;17.02;;;12.98;;
23402;SDS011;11874;48.228;11.684;2023-05-02T22:45:18;14.80;;;12.27;;
23402;SDS011;11874;48.228;11.684;2023-05-02T22:47:47;17.67;;;12.75;;
23402;SDS011;11874;48.228;11.684;2023-05-02T22:50:16;15.43;;;12.20;;
23402;SDS011;11874;48.228;11.684;2023-05-02T22:52:45;13.98;;;11.65;;
23402;SDS011;11874;48.228;11.684;2023-05-02T22:55:14;14.82;;;12.45;;
23402;SDS011;11874;48.228;11.684;2023-05-02T22:57:42;13.85;;;11.85;;
23402;SDS011;11874;48.228;11.684;2023-05-02T23:00:10;15.90;;;12.25;;
23402;SDS011;11874;48.228;11.684;2023-05-02T23:02:39;14.10;;;11.00;;
23402;SDS011;11874;48.228;11.684;2023-05-02T23:05:08;16.15;;;11.88;;
23402;SDS011;11874;48.228;11.684;2023-05-02T23:07:36;13.90;;;11.98;;
23402;SDS011;11874;48.228;11.684;2023-05-02T23:10:04;14.07;;;11.48;;
23402;SDS011;11874;48.228;11.684;2023-05-02T23:12:33;12.68;;;10.45;;
23402;SDS011;11874;48.228;11.684;2023-05-02T23:15:01;11.20;;;9.68;;
23402;SDS011;11874;48.228;11.684;2023-05-02T23:17:29;11.73;;;9.93;;
23402;SDS011;11874;48.228;11.684;2023-05-02T23:19:57;11.68;;;9.63;;
23402;SDS011;11874;48.228;11.684;2023-05-02T23:22:26;11.18;;;9.95;;
